createdAt,value
2022-08-02T00:03:12.839Z,99.90
2022-08-02T00:08:18.188Z,99.90
2022-08-02T00:13:23.730Z,99.90
2022-08-02T00:18:29.387Z,99.90
2022-08-02T00:23:34.618Z,99.90
2022-08-02T00:28:41.557Z,99.90
2022-08-02T00:34:27.024Z,99.90
2022-08-02T00:38:54.852Z,99.90
2022-08-02T00:44:00.110Z,99.90
2022-08-02T00:49:05.805Z,99.90
2022-08-02T00:54:14.757Z,99.90
2022-08-02T00:59:20.550Z,99.90
2022-08-02T01:04:31.269Z,99.90
2022-08-02T01:09:34.161Z,99.90
2022-08-02T01:14:41.082Z,99.90
2022-08-02T01:20:01.297Z,99.90
2022-08-02T01:25:27.353Z,99.90
2022-08-02T01:30:35.489Z,99.90
2022-08-02T01:35:50.598Z,99.90
2022-08-02T01:40:53.467Z,99.90
2022-08-02T01:46:01.017Z,99.90
2022-08-02T01:51:06.042Z,99.90
2022-08-02T01:56:13.496Z,99.90
2022-08-02T02:01:21.196Z,99.90
2022-08-02T02:06:28.191Z,99.90
2022-08-02T02:12:11.560Z,99.90
2022-08-02T02:16:44.259Z,99.90
2022-08-02T02:21:49.198Z,99.90
2022-08-02T02:26:54.401Z,99.90
2022-08-02T02:32:02.509Z,99.90
2022-08-02T02:37:11.010Z,99.90
2022-08-02T02:42:19.735Z,99.90
2022-08-02T02:47:40.571Z,99.90
2022-08-02T02:52:33.449Z,99.90
2022-08-02T02:57:40.229Z,99.90
2022-08-02T03:02:46.709Z,99.90
2022-08-02T03:07:52.302Z,99.90
2022-08-02T03:12:58.649Z,99.90
2022-08-02T03:18:03.867Z,99.90
2022-08-02T03:23:08.826Z,99.90
2022-08-02T03:28:14.090Z,99.90
2022-08-02T03:33:21.327Z,99.90
2022-08-02T03:38:29.202Z,99.90
2022-08-02T03:43:37.283Z,99.90
2022-08-02T03:48:43.364Z,99.90
2022-08-02T03:53:50.727Z,99.90
2022-08-02T03:59:12.760Z,99.90
2022-08-02T04:04:18.351Z,99.90
2022-08-02T04:09:24.424Z,99.90
2022-08-02T04:14:30.365Z,99.90
2022-08-02T04:19:45.534Z,99.90
2022-08-02T04:24:53.529Z,99.90
2022-08-02T04:30:01.420Z,99.90
2022-08-02T04:35:22.968Z,99.90
2022-08-02T04:40:15.691Z,99.90
2022-08-02T04:45:22.909Z,99.90
2022-08-02T04:50:28.804Z,99.90
2022-08-02T04:55:34.974Z,99.90
2022-08-02T05:00:40.966Z,99.90
2022-08-02T05:05:46.125Z,99.90
2022-08-02T05:10:51.887Z,99.90
2022-08-02T05:15:58.839Z,99.90
2022-08-02T05:21:05.399Z,99.90
2022-08-02T05:26:11.505Z,99.90
2022-08-02T05:31:16.666Z,99.90
2022-08-02T05:36:22.732Z,77.50
2022-08-02T05:41:27.753Z,28.00
2022-08-02T05:46:33.809Z,1.00
2022-08-02T05:51:39.715Z,1.00
2022-08-02T05:56:53.798Z,1.00
2022-08-02T06:02:02.986Z,1.00
2022-08-02T06:07:10.727Z,1.00
2022-08-02T06:12:18.730Z,1.00
2022-08-02T06:17:24.651Z,1.00
2022-08-02T06:22:36.022Z,1.00
2022-08-02T06:27:39.817Z,1.00
2022-08-02T06:32:46.196Z,1.00
2022-08-02T06:37:59.005Z,1.00
2022-08-02T06:43:16.216Z,1.00
2022-08-02T06:48:21.320Z,1.00
2022-08-02T06:53:27.230Z,1.00
2022-08-02T06:58:33.204Z,1.00
2022-08-02T07:03:40.821Z,1.00
2022-08-02T07:09:04.917Z,1.00
2022-08-02T07:13:53.782Z,1.00
2022-08-02T07:19:00.576Z,1.00
2022-08-02T07:24:06.673Z,1.00
2022-08-02T07:29:10.856Z,1.00
2022-08-02T07:34:16.641Z,99.90
2022-08-02T07:39:21.975Z,1.00
2022-08-02T07:44:29.137Z,1.00
2022-08-02T07:49:35.315Z,1.00
2022-08-02T07:54:41.371Z,1.00
2022-08-02T07:59:48.094Z,99.90
2022-08-02T08:04:54.283Z,1.00
2022-08-02T08:10:01.482Z,1.00
2022-08-02T08:15:07.228Z,1.00
2022-08-02T08:20:15.896Z,1.00
2022-08-02T08:25:22.202Z,1.00
2022-08-02T08:30:29.025Z,99.90
2022-08-02T08:35:35.227Z,99.90
2022-08-02T08:40:42.182Z,99.90
2022-08-02T08:45:55.985Z,99.90
2022-08-02T08:50:58.349Z,1.00
2022-08-02T08:56:03.810Z,99.90
2022-08-02T09:01:09.374Z,99.90
2022-08-02T09:06:15.083Z,99.90
2022-08-02T09:11:26.437Z,99.90
2022-08-02T09:16:34.439Z,1.00
2022-08-02T09:21:40.145Z,1.00
2022-08-02T09:26:44.872Z,99.90
2022-08-02T09:31:50.865Z,99.90
2022-08-02T09:36:56.331Z,1.00
2022-08-02T09:42:02.994Z,1.00
2022-08-02T09:47:08.594Z,99.90
2022-08-02T09:52:14.440Z,99.90
2022-08-02T09:57:28.839Z,99.90
2022-08-02T10:02:33.782Z,1.00
2022-08-02T10:07:39.495Z,1.00
2022-08-02T10:12:44.881Z,98.60
2022-08-02T10:17:50.579Z,99.90
2022-08-02T10:22:58.516Z,1.00
2022-08-02T10:28:05.763Z,1.00
2022-08-02T10:33:13.114Z,1.00
2022-08-02T10:38:19.920Z,1.00
2022-08-02T10:43:45.450Z,1.00
2022-08-02T10:54:22.289Z,1.00
2022-08-02T10:59:38.667Z,1.00
2022-08-02T11:04:47.042Z,99.90
2022-08-02T11:09:53.035Z,1.00
2022-08-02T11:15:07.835Z,1.00
2022-08-02T11:20:16.624Z,1.00
2022-08-02T11:25:32.097Z,99.90
2022-08-02T11:30:35.808Z,99.90
2022-08-02T11:35:42.534Z,1.00
2022-08-02T11:40:49.889Z,1.00
2022-08-02T11:45:57.232Z,1.00
2022-08-02T11:51:14.760Z,99.90
2022-08-02T11:56:29.476Z,99.90
2022-08-02T12:01:45.425Z,1.00
2022-08-02T12:06:44.919Z,1.00
2022-08-02T12:11:52.305Z,99.90
2022-08-02T12:17:15.130Z,99.90
2022-08-02T12:22:27.465Z,99.90
2022-08-02T12:27:35.870Z,99.90
2022-08-02T12:32:42.293Z,1.00
2022-08-02T12:37:50.069Z,78.40
2022-08-02T12:43:05.062Z,55.00
2022-08-02T12:48:11.497Z,1.00
2022-08-02T12:53:19.553Z,1.00
2022-08-02T12:58:25.578Z,1.00
2022-08-02T13:04:11.902Z,99.90
2022-08-02T13:08:38.974Z,1.00
2022-08-02T13:13:44.569Z,1.00
2022-08-02T13:18:49.757Z,1.00
2022-08-02T13:23:55.482Z,1.00
2022-08-02T13:29:01.810Z,1.00
2022-08-02T13:34:09.243Z,1.00
2022-08-02T13:39:14.647Z,1.00
2022-08-02T13:44:19.973Z,1.00
2022-08-02T13:49:49.657Z,1.00
2022-08-02T13:54:31.850Z,1.00
2022-08-02T13:59:56.871Z,1.00
2022-08-02T14:04:44.906Z,1.00
2022-08-02T14:09:49.106Z,1.00
2022-08-02T14:14:53.910Z,1.00
2022-08-02T14:19:59.218Z,1.00
2022-08-02T14:25:08.893Z,1.00
2022-08-02T14:30:11.729Z,1.00
2022-08-02T14:35:16.957Z,1.00
2022-08-02T14:40:30.749Z,1.00
2022-08-02T14:45:40.366Z,1.00
2022-08-02T14:50:39.507Z,1.00
2022-08-02T14:55:45.009Z,1.00
2022-08-02T15:00:50.309Z,1.00
2022-08-02T15:05:57.600Z,1.00
2022-08-02T15:11:03.069Z,1.00
2022-08-02T15:16:07.193Z,1.00
2022-08-02T15:21:40.314Z,1.00
2022-08-02T15:26:21.200Z,1.00
2022-08-02T15:31:33.313Z,1.00
2022-08-02T15:36:33.281Z,1.00
2022-08-02T15:41:38.660Z,1.00
2022-08-02T15:46:44.346Z,1.00
2022-08-02T15:51:51.118Z,1.00
2022-08-02T15:56:57.098Z,1.00
2022-08-02T16:02:05.186Z,1.00
2022-08-02T16:07:10.389Z,1.00
2022-08-02T16:12:16.465Z,1.00
2022-08-02T16:17:53.797Z,1.00
2022-08-02T16:22:29.961Z,1.00
2022-08-02T16:27:34.855Z,1.00
2022-08-02T16:32:42.143Z,1.00
2022-08-02T16:37:51.605Z,22.50
2022-08-02T16:42:55.992Z,1.00
2022-08-02T16:48:05.512Z,1.00
2022-08-02T16:53:08.069Z,32.00
2022-08-02T16:58:14.536Z,98.50
2022-08-02T17:03:20.926Z,48.30
2022-08-02T17:08:31.718Z,10.20
2022-08-02T17:13:37.725Z,80.00
2022-08-02T17:18:43.031Z,1.00
2022-08-02T17:24:07.719Z,1.00
2022-08-02T17:29:15.430Z,35.00
2022-08-02T17:34:02.489Z,99.90
2022-08-02T17:39:09.091Z,1.00
2022-08-02T17:44:14.970Z,1.00
2022-08-02T17:49:23.681Z,1.00
2022-08-02T17:54:29.683Z,1.00
2022-08-02T17:59:41.637Z,1.00
2022-08-02T18:04:43.618Z,1.00
2022-08-02T18:09:50.729Z,99.90
2022-08-02T18:14:57.937Z,1.00
2022-08-02T18:20:10.116Z,99.90
2022-08-02T18:25:36.183Z,1.00
2022-08-02T18:30:26.370Z,1.00
2022-08-02T18:35:26.218Z,1.00
2022-08-02T18:40:32.796Z,1.00
2022-08-02T18:46:05.645Z,1.00
2022-08-02T18:50:47.007Z,99.90
2022-08-02T18:55:59.622Z,1.00
2022-08-02T19:01:00.429Z,1.00
2022-08-02T19:06:07.596Z,1.00
2022-08-02T19:11:13.047Z,1.00
2022-08-02T19:16:19.740Z,1.00
2022-08-02T19:22:26.521Z,1.00
2022-08-02T19:26:32.143Z,1.00
2022-08-02T19:32:00.244Z,1.00
2022-08-02T19:36:46.815Z,1.00
2022-08-02T19:41:53.056Z,1.00
2022-08-02T19:46:59.879Z,1.00
2022-08-02T19:52:20.582Z,1.00
2022-08-02T19:57:13.813Z,1.00
2022-08-02T20:02:20.667Z,1.00
2022-08-02T20:07:55.275Z,1.00
2022-08-02T20:12:37.308Z,1.00
2022-08-02T20:17:41.217Z,1.00
2022-08-02T20:23:33.641Z,1.00
2022-08-02T20:28:15.028Z,1.00
2022-08-02T20:33:22.462Z,1.00
2022-08-02T20:38:29.906Z,1.00
2022-08-02T20:43:35.919Z,1.00
2022-08-02T20:48:42.129Z,1.00
2022-08-02T20:53:55.232Z,1.00
2022-08-02T20:59:03.703Z,1.00
2022-08-02T21:04:05.164Z,1.00
2022-08-02T21:09:10.594Z,1.00
2022-08-02T21:14:16.743Z,1.00
2022-08-02T21:19:23.556Z,1.00
2022-08-02T21:24:28.931Z,1.00
2022-08-02T21:29:36.414Z,1.00
2022-08-02T21:34:43.358Z,1.00
2022-08-02T21:39:50.762Z,1.00
2022-08-02T21:44:57.972Z,1.00
2022-08-02T21:50:13.439Z,1.00
2022-08-02T21:55:15.041Z,1.00
2022-08-02T22:00:28.453Z,1.00
2022-08-02T22:05:25.592Z,1.00
2022-08-02T22:10:32.374Z,1.00
2022-08-02T22:15:41.090Z,1.00
2022-08-02T22:20:44.956Z,1.00
2022-08-02T22:25:51.629Z,1.00
2022-08-02T22:30:58.142Z,1.00
2022-08-02T22:36:04.687Z,1.00
2022-08-02T22:41:10.214Z,1.00
2022-08-02T22:46:16.700Z,1.00
2022-08-02T22:51:22.161Z,1.00
2022-08-02T22:56:27.410Z,1.00
2022-08-02T23:01:33.482Z,1.00
2022-08-02T23:06:38.702Z,1.00
2022-08-02T23:11:44.161Z,1.00
2022-08-02T23:17:07.518Z,1.00
2022-08-02T23:22:13.846Z,1.00
2022-08-02T23:27:20.361Z,1.00
2022-08-02T23:32:26.356Z,1.00
2022-08-02T23:37:57.837Z,1.00
2022-08-02T23:42:38.071Z,1.00
2022-08-02T23:47:43.264Z,1.00
2022-08-02T23:52:48.617Z,1.00
2022-08-02T23:57:54.075Z,1.00
